»·PEaware :: N211WP KAPV-KBFL

N211WP :: KAPV-KBFL

FLIGHT INFORMATION

Flight Status: Arrived
Operator: Privately registered:
United States
More flights under this callsign
Pilot: Wayne M. (1794)
Aircraft: Unknown
(DA40)
More flights by this aircraft type
Origin: KAPV Apple Valley
United States
Destination: KBFL Meadows
United States
More flights between these airports :: More routes between these airports
Route: NASTE V12 PMD V197 MINGI
File this flight plan on PilotEdge
Remarks:
Altitude:
(Current/Filed)
10,000ft
Speed:
(Current/Filed)
135kts
Departed: 14-Jan-16 12:22 PM
Arrived: 14-Jan-16 01:34 PM
Distance/Time
Traveled:
105nm/1:12
Distance/Time
To Go:
Arrived

Flight Plot

Page will automatically refresh every two minutes.


Map Options




Map Legend


Flown Route
Filed Route
Departure Airport
Arrival Airport
Navaid (VOR, NDB)
Fix

Horizontal Profiles

Position Reports

Time Latitude Longitude Heading Altitude Ground
Speed
14-Jan-16 12:16 34.576788 -117.186242 14 3049ft 89kts
14-Jan-16 12:17 34.597176 -117.177028 16 3747ft 113kts
14-Jan-16 12:18 34.620105 -117.170103 10 4389ft 110kts
14-Jan-16 12:19 34.642023 -117.164757 9 4983ft 108kts
14-Jan-16 12:20 34.657697 -117.171041 320 5441ft 107kts
14-Jan-16 12:21 34.662379 -117.197940 279 5736ft 131kts
14-Jan-16 12:22 34.664981 -117.226902 282 6427ft 112kts
14-Jan-16 12:23 34.667977 -117.255198 283 6960ft 114kts
14-Jan-16 12:24 34.671252 -117.284517 283 7505ft 114kts
14-Jan-16 12:25 34.674588 -117.313546 283 7898ft 124kts
14-Jan-16 12:26 34.678312 -117.345804 282 7949ft 135kts
14-Jan-16 12:27 34.681933 -117.377473 283 8462ft 127kts
14-Jan-16 12:28 34.685385 -117.407447 284 8964ft 125kts
14-Jan-16 12:29 34.688817 -117.437258 284 9475ft 122kts
14-Jan-16 12:30 34.692140 -117.466124 284 9954ft 121kts
14-Jan-16 12:31 34.692220 -117.496908 270 9996ft 141kts
14-Jan-16 12:32 34.688923 -117.530155 270 9993ft 145kts
14-Jan-16 12:33 34.685488 -117.563242 270 9992ft 146kts
14-Jan-16 12:34 34.682342 -117.593062 270 9992ft 146kts
14-Jan-16 12:35 34.679239 -117.622271 270 9992ft 145kts
14-Jan-16 12:36 34.676590 -117.647100 270 9992ft 145kts
14-Jan-16 12:37 34.673423 -117.676695 270 9993ft 145kts
14-Jan-16 12:38 34.669485 -117.713376 270 9994ft 145kts
14-Jan-16 12:39 34.667005 -117.736416 270 9995ft 145kts
14-Jan-16 12:40 34.663931 -117.764907 270 9995ft 145kts
14-Jan-16 12:41 34.660774 -117.794327 270 10006ft 155kts
14-Jan-16 12:42 34.657189 -117.827825 269 10003ft 175kts
14-Jan-16 12:43 34.653458 -117.862002 268 10001ft 181kts
14-Jan-16 12:44 34.649883 -117.894688 268 10001ft 182kts
14-Jan-16 12:45 34.645878 -117.931281 268 10003ft 183kts
14-Jan-16 12:46 34.641855 -117.967975 268 10004ft 183kts
14-Jan-16 12:47 34.637567 -118.006989 268 10006ft 183kts
14-Jan-16 12:48 34.632723 -118.051031 269 10007ft 183kts
14-Jan-16 12:49 34.651948 -118.087435 313 10009ft 172kts
14-Jan-16 12:50 34.671905 -118.113315 314 10011ft 172kts
14-Jan-16 12:51 34.694956 -118.142187 314 10010ft 172kts
14-Jan-16 12:52 34.718914 -118.172033 314 10008ft 172kts
14-Jan-16 12:53 34.742138 -118.200933 314 10007ft 172kts
14-Jan-16 12:54 34.765588 -118.230122 314 10006ft 172kts
14-Jan-16 12:55 34.790095 -118.260648 314 10004ft 172kts
14-Jan-16 12:56 34.814315 -118.290842 314 10003ft 171kts
14-Jan-16 12:57 34.838000 -118.320395 314 10001ft 171kts
14-Jan-16 12:58 34.860994 -118.349204 313 10001ft 171kts
14-Jan-16 12:59 34.883763 -118.377557 313 10009ft 171kts
14-Jan-16 13:00 34.906483 -118.405986 313 10016ft 171kts
14-Jan-16 13:01 34.928826 -118.434030 313 10022ft 171kts
14-Jan-16 13:02 34.950755 -118.461469 313 10026ft 170kts
14-Jan-16 13:03 34.973861 -118.490436 313 10031ft 167kts
14-Jan-16 13:04 34.994876 -118.516812 313 10034ft 166kts
14-Jan-16 13:05 35.016126 -118.543507 313 10035ft 166kts
14-Jan-16 13:06 35.037750 -118.570692 313 10036ft 166kts
14-Jan-16 13:07 35.059986 -118.598670 313 10036ft 167kts
14-Jan-16 13:08 35.082649 -118.627212 313 10038ft 167kts
14-Jan-16 13:09 35.105714 -118.656287 313 10041ft 167kts
14-Jan-16 13:10 35.128028 -118.684513 313 9633ft 139kts
14-Jan-16 13:11 35.145055 -118.706164 313 9003ft 112kts
14-Jan-16 13:12 35.160447 -118.725730 314 8394ft 106kts
14-Jan-16 13:13 35.175583 -118.744976 315 7674ft 107kts
14-Jan-16 13:14 35.191206 -118.764254 317 6854ft 103kts
14-Jan-16 13:15 35.207236 -118.783678 318 6095ft 112kts
14-Jan-16 13:16 35.226049 -118.806084 317 5484ft 125kts
14-Jan-16 13:17 35.246375 -118.830456 317 4842ft 129kts
14-Jan-16 13:18 35.266482 -118.854630 317 4493ft 113kts
14-Jan-16 13:19 35.284221 -118.874652 314 4269ft 107kts
14-Jan-16 13:20 35.299637 -118.894429 317 4048ft 102kts
14-Jan-16 13:21 35.316871 -118.915125 317 3653ft 109kts
14-Jan-16 13:22 35.334570 -118.936421 316 3208ft 108kts
14-Jan-16 13:23 35.351327 -118.956596 316 2727ft 106kts
14-Jan-16 13:24 35.367969 -118.976651 315 2265ft 103kts
14-Jan-16 13:25 35.384605 -118.996717 315 1809ft 103kts
14-Jan-16 13:26 35.401720 -119.017372 315 1341ft 103kts
14-Jan-16 13:27 35.418502 -119.037632 315 884ft 98kts
14-Jan-16 13:28 35.434010 -119.056453 314 487ft 75kts
14-Jan-16 13:29 35.440299 -119.062593 31 495ft 0kts
14-Jan-16 13:30 35.440302 -119.061754 137 497ft 13kts
14-Jan-16 13:31 35.437873 -119.058837 135 493ft 16kts
14-Jan-16 13:32 35.435523 -119.055999 134 494ft 16kts

Navigation Log

Ident Type
Flight plan parsing failed, navigation log unavailable